Time;durP1;ratioP1;P1;durP2;ratioP2;P2;SDS_P1;SDS_P2;PMS_P1;PMS_P2;Temp;Humidity;BMP_temperature;BMP_pressure;BME280_temperature;BME280_humidity;BME280_pressure;Samples;Min_cycle;Max_cycle;Signal;HPM_P1;HPM_P2
2021/09/16 00:02:06;;;;;;;18.73;12.48;;;;;;;15.81;100.00;94756.63;5053772;28;20096;-52
2021/09/16 00:04:31;;;;;;;17.77;12.35;;;;;;;15.83;100.00;94757.13;5051634;28;20128;-51
2021/09/16 00:06:56;;;;;;;20.80;12.20;;;;;;;16.02;100.00;94757.75;5022774;28;20136;-55
2021/09/16 00:09:25;;;;;;;15.55;11.88;;;;;;;-144.43;100.00;64487.81;5053434;28;20033;-54
2021/09/16 00:11:50;;;;;;;17.80;11.73;;;;;;;-144.43;100.00;64487.81;5035562;28;20025;-51
2021/09/16 00:14:16;;;;;;;14.10;10.90;;;;;;;-144.43;100.00;64487.81;5053424;28;20035;-49
2021/09/16 00:16:41;;;;;;;16.88;11.65;;;;;;;-144.43;100.00;64487.81;5053454;28;20079;-51
2021/09/16 00:19:06;;;;;;;20.38;12.10;;;;;;;-144.43;100.00;64487.81;5053325;28;20021;-54
2021/09/16 00:21:32;;;;;;;15.25;11.52;;;;;;;-144.43;100.00;64487.81;5053129;28;20078;-54
2021/09/16 00:24:09;;;;;;;13.77;10.52;;;;;;;-144.43;100.00;64487.81;5053376;28;20443;-52
2021/09/16 00:26:40;;;;;;;16.88;10.95;;;;;;;-144.43;100.00;64487.81;5053331;28;20025;-50
2021/09/16 00:29:26;;;;;;;16.02;10.68;;;;;;;-144.43;100.00;64487.81;5051850;28;20029;-52
2021/09/16 00:31:52;;;;;;;15.25;10.27;;;;;;;-144.43;100.00;64487.81;5053174;28;20429;-51
2021/09/16 00:34:25;;;;;;;15.75;10.65;;;;;;;-144.43;100.00;64487.81;5052814;28;20060;-54
2021/09/16 00:36:53;;;;;;;15.93;11.38;;;;;;;-144.43;100.00;64487.81;5053265;28;20029;-48
2021/09/16 00:39:19;;;;;;;20.67;10.75;;;;;;;-144.43;100.00;64487.81;5052993;28;20025;-53
2021/09/16 00:41:44;;;;;;;13.50;10.18;;;;;;;-144.43;100.00;64487.81;5053058;28;20120;-54
2021/09/16 00:44:09;;;;;;;13.68;10.00;;;;;;;-144.43;100.00;64487.81;5052780;28;20032;-54
2021/09/16 00:46:38;;;;;;;15.15;9.73;;;;;;;-144.43;100.00;64487.81;5052763;28;20095;-49
2021/09/16 00:49:04;;;;;;;16.80;10.57;;;;;;;-144.43;100.00;64487.81;5052734;28;20036;-51
2021/09/16 00:51:30;;;;;;;20.23;10.68;;;;;;;-144.43;100.00;64487.81;5052834;28;20036;-53
2021/09/16 00:53:58;;;;;;;16.33;10.05;;;;;;;-144.43;100.00;64487.81;5051306;28;20024;-53
2021/09/16 00:56:27;;;;;;;13.07;10.55;;;;;;;-144.43;100.00;64487.81;5053052;28;20063;-52
2021/09/16 00:59:02;;;;;;;12.18;9.18;;;;;;;-144.43;100.00;64487.81;5052651;28;20021;-57
2021/09/16 01:01:29;;;;;;;14.80;10.40;;;;;;;-144.43;100.00;64487.81;5052561;28;20033;-56
2021/09/16 01:04:04;;;;;;;14.65;10.05;;;;;;;-144.43;100.00;64487.81;5051169;28;20084;-48
2021/09/16 01:06:29;;;;;;;14.30;10.57;;;;;;;-144.43;100.00;64487.81;5039131;28;20029;-55
2021/09/16 01:09:09;;;;;;;14.32;9.70;;;;;;;-144.43;100.00;64487.81;5052759;28;20152;-53
2021/09/16 01:11:34;;;;;;;14.02;11.18;;;;;;;-144.43;100.00;64487.81;5051468;28;20017;-53
2021/09/16 01:13:59;;;;;;;13.75;9.90;;;;;;;-144.43;100.00;64487.81;5044194;28;20036;-52
2021/09/16 01:16:28;;;;;;;14.90;9.85;;;;;;;-144.43;100.00;64487.81;5052317;28;20100;-51
2021/09/16 01:18:56;;;;;;;15.73;9.95;;;;;;;-144.43;100.00;64487.81;5052320;28;20499;-52
2021/09/16 01:21:22;;;;;;;16.30;10.23;;;;;;;-144.43;100.00;64487.81;5052197;28;20491;-55
2021/09/16 01:23:51;;;;;;;14.63;9.88;;;;;;;-144.43;100.00;64487.81;5052260;28;20029;-53
2021/09/16 01:26:16;;;;;;;16.13;10.30;;;;;;;-144.43;100.00;64487.81;5052180;28;20025;-56
2021/09/16 01:28:42;;;;;;;13.68;9.63;;;;;;;-144.43;100.00;64487.81;5050830;28;20372;-52
2021/09/16 01:31:08;;;;;;;16.70;10.93;;;;;;;-144.43;100.00;64487.81;5052195;28;20029;-54
2021/09/16 01:33:39;;;;;;;14.05;10.90;;;;;;;-144.43;100.00;64487.81;5052133;28;20040;-55
2021/09/16 01:36:13;;;;;;;16.05;10.60;;;;;;;-144.43;100.00;64487.81;5038454;28;20099;-52
2021/09/16 01:38:39;;;;;;;17.25;10.27;;;;;;;-144.43;100.00;64487.81;5052011;28;20058;-55
2021/09/16 01:41:07;;;;;;;14.88;10.70;;;;;;;-144.43;100.00;64487.81;5051984;28;20029;-51
2021/09/16 01:43:32;;;;;;;11.73;10.30;;;;;;;-144.43;100.00;64487.81;5034039;28;20507;-48
2021/09/16 01:45:58;;;;;;;16.00;9.23;;;;;;;-144.43;100.00;64487.81;5052024;28;20040;-53
2021/09/16 01:48:23;;;;;;;14.05;10.48;;;;;;;-144.43;100.00;64487.81;5051931;28;20020;-50
2021/09/16 01:50:54;;;;;;;11.90;9.30;;;;;;;-144.43;100.00;64487.81;5034148;28;20107;-50
2021/09/16 01:53:23;;;;;;;14.30;9.00;;;;;;;-144.43;100.00;64487.81;5033906;28;20510;-53
2021/09/16 01:55:51;;;;;;;12.40;9.50;;;;;;;-144.43;100.00;64487.81;5052048;28;20471;-51
2021/09/16 01:58:23;;;;;;;20.60;10.23;;;;;;;-144.43;100.00;64487.81;5051889;28;20025;-54
2021/09/16 02:00:48;;;;;;;11.57;9.85;;;;;;;-144.43;100.00;64487.81;5051966;28;20064;-54
2021/09/16 02:03:13;;;;;;;14.70;10.13;;;;;;;-144.43;100.00;64487.81;5033752;28;20438;-56
2021/09/16 02:05:39;;;;;;;14.68;9.85;;;;;;;-144.43;100.00;64487.81;5051791;28;20063;-51
2021/09/16 02:08:12;;;;;;;12.40;9.48;;;;;;;-144.43;100.00;64487.81;5033738;28;20036;-50
2021/09/16 02:10:37;;;;;;;16.85;10.07;;;;;;;-144.43;100.00;64487.81;5051881;28;20099;-55
2021/09/16 02:13:03;;;;;;;12.70;8.95;;;;;;;-144.43;100.00;64487.81;5024476;28;20125;-52
2021/09/16 02:15:28;;;;;;;13.55;10.80;;;;;;;-144.43;100.00;64487.81;5051848;28;20044;-53
2021/09/16 02:17:56;;;;;;;14.02;9.70;;;;;;;-144.43;100.00;64487.81;5051730;28;20383;-51
2021/09/16 02:20:23;;;;;;;11.30;9.68;;;;;;;-144.43;100.00;64487.81;5051524;28;20055;-54
2021/09/16 02:22:49;;;;;;;12.68;10.20;;;;;;;-144.43;100.00;64487.81;5050359;28;20451;-49
2021/09/16 02:25:14;;;;;;;14.23;9.82;;;;;;;-144.43;100.00;64487.81;5051728;28;20060;-50
2021/09/16 02:27:40;;;;;;;15.18;10.52;;;;;;;-144.43;100.00;64487.81;5050296;28;20119;-55
2021/09/16 02:30:23;;;;;;;18.98;9.85;;;;;;;-144.43;100.00;64487.81;5051734;28;20020;-49
2021/09/16 02:32:51;;;;;;;;;;;;;;;-144.43;100.00;64487.81;5050680;28;20150;-50
2021/09/16 02:35:17;;;;;;;16.85;9.60;;;;;;;-144.43;100.00;64487.81;5051437;28;19909;-51
2021/09/16 02:37:42;;;;;;;15.63;10.50;;;;;;;-144.43;100.00;64487.81;5051496;28;20021;-52
2021/09/16 02:40:09;;;;;;;14.27;10.63;;;;;;;-144.43;100.00;64487.81;5051570;28;20051;-51
2021/09/16 02:42:35;;;;;;;14.85;10.43;;;;;;;-144.43;100.00;64487.81;5051475;28;20016;-51
2021/09/16 02:45:00;;;;;;;14.20;10.43;;;;;;;-144.43;100.00;64487.81;5051512;28;20035;-49
2021/09/16 02:47:26;;;;;;;15.68;10.80;;;;;;;-144.43;100.00;64487.81;5052433;28;20395;-51
2021/09/16 02:49:51;;;;;;;15.88;10.82;;;;;;;-144.43;100.00;64487.81;5054979;28;20033;-49
2021/09/16 02:52:17;;;;;;;12.40;10.10;;;;;;;-144.43;100.00;64487.81;5053743;28;20036;-53
2021/09/16 02:54:42;;;;;;;14.00;10.30;;;;;;;-144.43;100.00;64487.81;5054906;28;20043;-49
2021/09/16 02:57:07;;;;;;;14.90;10.23;;;;;;;-144.43;100.00;64487.81;5054873;28;20031;-49
2021/09/16 02:59:42;;;;;;;19.95;10.40;;;;;;;-144.43;100.00;64487.81;5054912;28;20096;-50
2021/09/16 03:02:07;;;;;;;12.50;9.25;;;;;;;-144.43;100.00;64487.81;5054649;28;20029;-52
2021/09/16 03:04:35;;;;;;;15.15;9.93;;;;;;;-144.43;100.00;64487.81;5054413;28;20105;-51
2021/09/16 03:07:09;;;;;;;14.43;10.32;;;;;;;-144.43;100.00;64487.81;5036957;28;20025;-55
2021/09/16 03:09:35;;;;;;;12.77;10.27;;;;;;;-144.43;100.00;64487.81;5054443;28;20083;-56
2021/09/16 03:12:04;;;;;;;18.40;10.93;;;;;;;-144.43;100.00;64487.81;5050304;28;20025;-50
2021/09/16 03:14:29;;;;;;;12.68;9.77;;;;;;;-144.43;100.00;64487.81;5044809;28;20032;-49
2021/09/16 03:16:57;;;;;;;13.98;9.55;;;;;;;-144.43;100.00;64487.81;5054825;28;20383;-54
2021/09/16 03:19:25;;;;;;;15.07;11.25;;;;;;;-144.43;100.00;64487.81;5054423;28;20404;-50
2021/09/16 03:21:50;;;;;;;13.85;9.98;;;;;;;-144.43;100.00;64487.81;5053241;28;20434;-48
2021/09/16 03:24:16;;;;;;;16.40;11.07;;;;;;;-144.43;100.00;64487.81;5054421;28;20033;-48
2021/09/16 03:26:41;;;;;;;13.20;9.88;;;;;;;-144.43;100.00;64487.81;5054395;28;20029;-54
2021/09/16 03:29:10;;;;;;;14.88;9.95;;;;;;;-144.43;100.00;64487.81;5054096;28;20051;-54
2021/09/16 03:31:35;;;;;;;17.00;10.52;;;;;;;15.45;100.00;94622.47;5054258;28;20502;-52
2021/09/16 03:34:03;;;;;;;17.52;10.80;;;;;;;-144.43;100.00;64487.81;5053972;28;20068;-48
2021/09/16 03:36:29;;;;;;;14.57;9.57;;;;;;;15.40;100.00;94637.97;5053063;28;20036;-51
2021/09/16 03:39:06;;;;;;;16.20;10.95;;;;;;;15.44;100.00;94652.47;5054590;28;20459;-49
2021/09/16 03:41:35;;;;;;;13.65;10.00;;;;;;;15.46;100.00;94661.84;5054142;28;20021;-52
2021/09/16 03:44:00;;;;;;;18.77;10.25;;;;;;;15.45;100.00;94673.75;5054009;28;20025;-53
2021/09/16 03:46:28;;;;;;;19.08;10.45;;;;;;;15.46;100.00;94675.34;5053332;28;20056;-50
2021/09/16 03:48:54;;;;;;;15.02;9.38;;;;;;;15.49;100.00;94676.63;5053911;28;20029;-51
2021/09/16 03:51:22;;;;;;;13.23;9.05;;;;;;;15.53;100.00;94677.63;5053987;28;20033;-52
2021/09/16 03:53:53;;;;;;;17.15;9.88;;;;;;;-144.43;100.00;64487.81;5053868;28;20048;-53
2021/09/16 03:56:18;;;;;;;14.00;9.55;;;;;;;15.65;100.00;94675.19;5052444;28;20025;-51
2021/09/16 03:58:50;;;;;;;12.38;9.80;;;;;;;15.69;100.00;94686.97;5053352;28;20023;-54
2021/09/16 04:01:21;;;;;;;13.98;9.90;;;;;;;15.74;100.00;94677.94;5053788;28;20021;-51
2021/09/16 04:03:50;;;;;;;18.27;10.23;;;;;;;15.74;100.00;94678.78;5054039;28;20056;-55
2021/09/16 04:06:15;;;;;;;18.48;9.65;;;;;;;15.75;100.00;94688.47;5040438;28;20102;-55
2021/09/16 04:08:40;;;;;;;13.32;8.70;;;;;;;15.76;100.00;94687.34;5053473;28;20021;-53
2021/09/16 04:11:09;;;;;;;15.80;8.65;;;;;;;15.78;100.00;94692.44;5053890;28;20043;-55
2021/09/16 04:13:34;;;;;;;17.88;8.60;;;;;;;15.83;100.00;94687.69;5044337;28;20086;-53
2021/09/16 04:16:03;;;;;;;14.52;7.38;;;;;;;15.85;100.00;94690.13;5053428;28;20458;-57
2021/09/16 04:18:28;;;;;;;12.70;7.50;;;;;;;15.87;100.00;94693.31;5053487;28;20020;-54
2021/09/16 04:20:58;;;;;;;11.95;7.88;;;;;;;15.86;100.00;94691.72;5053425;28;20021;-53
2021/09/16 04:23:24;;;;;;;13.75;7.53;;;;;;;15.86;100.00;94703.31;5051861;28;20091;-51
2021/09/16 04:25:50;;;;;;;13.25;7.10;;;;;;;15.86;100.00;94700.63;5053192;28;20024;-54
2021/09/16 04:28:15;;;;;;;12.15;7.88;;;;;;;15.87;100.00;94702.22;5053166;28;20476;-52
2021/09/16 04:30:40;;;;;;;14.48;7.88;;;;;;;15.88;100.00;94698.41;5053250;28;20391;-55
2021/09/16 04:33:05;;;;;;;14.15;7.55;;;;;;;15.88;100.00;94687.59;5053117;28;20094;-56
2021/09/16 04:35:31;;;;;;;12.73;7.35;;;;;;;15.89;100.00;94693.78;5052770;28;20107;-56
2021/09/16 04:37:56;;;;;;;14.27;7.20;;;;;;;15.88;100.00;94693.00;5052936;28;20028;-56
2021/09/16 04:40:22;;;;;;;10.35;6.55;;;;;;;15.87;100.00;94694.09;5053017;28;20060;-60
2021/09/16 04:42:47;;;;;;;13.68;7.32;;;;;;;15.86;100.00;94694.41;5053003;28;20115;-58
2021/09/16 04:45:13;;;;;;;12.48;6.80;;;;;;;15.86;100.00;94689.81;5052854;28;20111;-57
2021/09/16 04:47:41;;;;;;;11.77;6.50;;;;;;;15.85;100.00;94688.22;5052809;28;20033;-58
2021/09/16 04:50:09;;;;;;;15.02;6.78;;;;;;;15.84;100.00;94683.09;5052707;28;20389;-57
2021/09/16 04:52:35;;;;;;;15.20;6.85;;;;;;;15.84;100.00;94685.81;5034810;28;20025;-56
2021/09/16 04:55:04;;;;;;;13.57;7.03;;;;;;;15.83;100.00;94684.22;5052576;28;20163;-57
2021/09/16 04:57:33;;;;;;;11.73;6.45;;;;;;;15.80;100.00;94680.22;5034831;28;20392;-56
2021/09/16 04:59:58;;;;;;;13.93;7.55;;;;;;;15.80;100.00;94690.22;5034637;28;20052;-58
2021/09/16 05:02:26;;;;;;;12.75;7.00;;;;;;;15.78;100.00;94693.25;5052626;28;20079;-59
2021/09/16 05:04:52;;;;;;;17.30;6.93;;;;;;;15.77;100.00;94686.25;5052099;28;20123;-56
2021/09/16 05:07:17;;;;;;;13.40;7.72;;;;;;;15.74;100.00;94692.28;5035051;28;20111;-57
2021/09/16 05:09:46;;;;;;;13.65;7.53;;;;;;;15.73;100.00;94693.34;5051944;28;20029;-59
2021/09/16 05:12:11;;;;;;;12.73;6.75;;;;;;;15.74;100.00;94688.75;5028538;28;20048;-58
2021/09/16 05:14:36;;;;;;;13.85;6.82;;;;;;;15.72;100.00;94696.34;5041624;28;20410;-53
2021/09/16 05:17:02;;;;;;;12.05;6.20;;;;;;;15.72;100.00;94702.56;5033775;28;20036;-57
2021/09/16 05:19:27;;;;;;;10.48;6.35;;;;;;;15.73;100.00;94700.66;5036874;28;20094;-58
2021/09/16 05:21:53;;;;;;;9.07;5.93;;;;;;;15.72;100.00;94702.56;5030368;28;20031;-56
2021/09/16 05:24:21;;;;;;;11.35;6.32;;;;;;;15.72;100.00;94710.66;5047465;28;20025;-58
2021/09/16 05:26:47;;;;;;;13.45;6.45;;;;;;;15.73;100.00;94711.44;5030843;28;20113;-56
2021/09/16 05:29:17;;;;;;;12.15;6.82;;;;;;;15.76;100.00;94710.88;5034549;28;20079;-58
2021/09/16 05:31:45;;;;;;;10.68;6.38;;;;;;;15.78;100.00;94709.44;5047126;28;20384;-56
2021/09/16 05:34:11;;;;;;;12.00;6.40;;;;;;;15.82;100.00;94710.41;5048619;28;20104;-55
2021/09/16 05:36:36;;;;;;;14.75;6.88;;;;;;;15.83;100.00;94709.31;5051407;28;20108;-56
2021/09/16 05:39:03;;;;;;;12.80;6.50;;;;;;;15.85;100.00;94714.44;5047470;28;20021;-58
2021/09/16 05:41:30;;;;;;;13.80;6.90;;;;;;;15.86;100.00;94706.00;5051410;28;20035;-58
2021/09/16 05:43:55;;;;;;;11.32;6.50;;;;;;;15.90;100.00;94711.59;5046985;28;20121;-58
2021/09/16 05:46:21;;;;;;;15.80;7.57;;;;;;;15.93;100.00;94714.47;5040975;28;20108;-56
2021/09/16 05:48:46;;;;;;;12.00;6.63;;;;;;;15.98;100.00;94716.25;5042965;28;20587;-55
2021/09/16 05:51:14;;;;;;;12.75;6.45;;;;;;;16.01;100.00;94710.25;5028508;28;20438;-58
2021/09/16 05:53:39;;;;;;;9.68;6.63;;;;;;;16.00;100.00;94721.34;5045227;28;20028;-58
2021/09/16 05:56:14;;;;;;;13.57;6.30;;;;;;;16.03;100.00;94720.72;5024813;28;20025;-58
2021/09/16 05:58:46;;;;;;;16.17;6.40;;;;;;;16.04;100.00;94723.13;5045996;28;20017;-59
2021/09/16 06:01:17;;;;;;;14.27;6.47;;;;;;;16.07;100.00;94719.81;5051068;28;20530;-59
2021/09/16 06:03:52;;;;;;;14.07;6.75;;;;;;;16.09;100.00;94727.63;5048447;28;20124;-58
2021/09/16 06:06:17;;;;;;;18.50;6.80;;;;;;;16.09;100.00;94728.41;5047145;28;20429;-58
2021/09/16 06:08:46;;;;;;;10.32;6.07;;;;;;;16.10;100.00;94727.31;5046638;28;20035;-58
2021/09/16 06:11:11;;;;;;;12.60;6.38;;;;;;;16.12;100.00;94724.28;5051197;28;20067;-57
2021/09/16 06:13:37;;;;;;;10.30;6.25;;;;;;;16.16;100.00;94728.75;5032964;28;20071;-59
2021/09/16 06:16:24;;;;;;;12.02;6.40;;;;;;;16.19;100.00;94735.47;5051054;28;20092;-56
2021/09/16 06:18:52;;;;;;;15.90;7.15;;;;;;;16.19;100.00;94735.47;5051103;28;20040;-57
2021/09/16 06:21:18;;;;;;;17.75;6.20;;;;;;;16.21;100.00;94738.66;5052028;28;20032;-56
2021/09/16 06:23:52;;;;;;;13.45;7.13;;;;;;;16.27;100.00;94744.72;5036739;28;20028;-54
2021/09/16 06:26:24;;;;;;;12.45;6.82;;;;;;;16.28;100.00;94752.53;5037057;28;20072;-57
2021/09/16 06:28:58;;;;;;;11.45;6.53;;;;;;;16.28;100.00;94755.25;5054741;28;20021;-55
2021/09/16 06:31:27;;;;;;;11.50;6.13;;;;;;;16.28;100.00;94749.03;5055083;28;20575;-58
2021/09/16 06:33:52;;;;;;;14.02;6.72;;;;;;;16.28;100.00;94743.63;5036940;28;20069;-53
2021/09/16 06:36:18;;;;;;;15.23;6.43;;;;;;;16.29;100.00;94748.72;5036999;28;20514;-54
2021/09/16 06:38:43;;;;;;;10.27;6.00;;;;;;;16.31;100.00;94749.22;5054565;28;20385;-52
2021/09/16 06:41:08;;;;;;;14.35;6.38;;;;;;;16.34;100.00;94748.59;5054764;28;20077;-52
2021/09/16 06:43:34;;;;;;;13.82;6.47;;;;;;;16.38;100.00;94752.25;5054073;28;20036;-52
2021/09/16 06:45:59;;;;;;;12.13;6.47;;;;;;;-144.43;100.00;64487.81;5054674;28;20479;-55
2021/09/16 06:48:25;;;;;;;16.10;7.22;;;;;;;-144.43;100.00;64487.81;5054513;28;20040;-60
2021/09/16 06:50:53;;;;;;;16.25;6.85;;;;;;;-144.43;100.00;64487.81;5054218;28;20373;-57
2021/09/16 06:53:19;;;;;;;16.33;7.38;;;;;;;-144.43;100.00;64487.81;5052358;28;20523;-60
2021/09/16 06:55:44;;;;;;;13.65;6.88;;;;;;;-144.43;100.00;64487.81;5054491;28;20100;-57
2021/09/16 06:58:09;;;;;;;11.27;6.32;;;;;;;-144.43;100.00;64487.81;5054308;28;20035;-55
2021/09/16 07:00:35;;;;;;;14.70;7.63;;;;;;;-144.43;100.00;64487.81;5053004;28;20511;-57
2021/09/16 07:03:00;;;;;;;19.55;7.00;;;;;;;-144.43;100.00;64487.81;5053580;28;20102;-49
2021/09/16 07:05:26;;;;;;;13.13;7.47;;;;;;;-144.43;100.00;64487.81;5054493;28;20087;-50
2021/09/16 07:07:51;;;;;;;14.32;7.05;;;;;;;-144.43;100.00;64487.81;5054208;28;20112;-49
2021/09/16 07:10:26;;;;;;;14.48;7.45;;;;;;;-144.43;100.00;64487.81;5036447;28;20032;-54
2021/09/16 07:12:51;;;;;;;11.57;7.32;;;;;;;-144.43;100.00;64487.81;5053651;28;20090;-52
2021/09/16 07:15:18;;;;;;;15.32;7.25;;;;;;;-144.43;100.00;64487.81;5036030;28;20032;-54
2021/09/16 07:17:43;;;;;;;17.10;7.47;;;;;;;-144.43;100.00;64487.81;5036131;28;20071;-50
2021/09/16 07:20:10;;;;;;;15.63;7.30;;;;;;;-144.43;100.00;64487.81;5036018;28;20430;-49
2021/09/16 07:22:37;;;;;;;16.38;7.25;;;;;;;-144.43;100.00;64487.81;5032271;28;20032;-55
2021/09/16 07:25:02;;;;;;;12.98;7.88;;;;;;;-144.43;100.00;64487.81;5051511;28;20120;-54
2021/09/16 07:27:28;;;;;;;12.40;7.50;;;;;;;-144.43;100.00;64487.81;5053786;28;20108;-54
2021/09/16 07:29:56;;;;;;;23.88;8.05;;;;;;;-144.43;100.00;64487.81;5053803;28;20033;-55
2021/09/16 07:32:24;;;;;;;11.20;6.03;;;;;;;-144.43;100.00;64487.81;5053282;28;20032;-51
2021/09/16 07:34:49;;;;;;;13.52;6.80;;;;;;;-144.43;100.00;64487.81;5053230;28;20031;-59
2021/09/16 07:37:20;;;;;;;8.25;5.85;;;;;;;-144.43;100.00;64487.81;5053592;28;20025;-57
2021/09/16 07:39:45;;;;;;;10.80;6.43;;;;;;;-144.43;100.00;64487.81;5053658;28;20025;-57
2021/09/16 07:42:11;;;;;;;10.40;6.35;;;;;;;-144.43;100.00;64487.81;5053129;28;20039;-56
2021/09/16 07:44:43;;;;;;;11.38;6.78;;;;;;;-144.43;100.00;64487.81;5052381;28;20024;-58
2021/09/16 07:47:08;;;;;;;14.97;6.53;;;;;;;-144.43;100.00;64487.81;5053573;28;20040;-56
2021/09/16 07:49:34;;;;;;;13.52;6.22;;;;;;;-144.43;100.00;64487.81;5051958;28;20021;-55
2021/09/16 07:52:02;;;;;;;13.02;6.60;;;;;;;-144.43;100.00;64487.81;5052151;28;20609;-55
2021/09/16 07:54:28;;;;;;;11.05;5.88;;;;;;;-144.43;100.00;64487.81;5053165;28;20150;-58
2021/09/16 07:56:57;;;;;;;12.48;5.78;;;;;;;-144.43;100.00;64487.81;5053519;28;20120;-51
2021/09/16 07:59:30;;;;;;;14.73;6.45;;;;;;;-144.43;100.00;64487.81;5053381;28;20021;-52
2021/09/16 08:01:56;;;;;;;12.98;5.75;;;;;;;-144.43;100.00;64487.81;5051650;28;20020;-55
2021/09/16 08:04:22;;;;;;;12.68;5.72;;;;;;;-144.43;100.00;64487.81;5051796;28;20530;-51
2021/09/16 08:06:50;;;;;;;10.77;5.05;;;;;;;-144.43;100.00;64487.81;5053099;28;20025;-52
2021/09/16 08:09:16;;;;;;;9.07;5.53;;;;;;;-144.43;100.00;64487.81;5053019;28;20024;-53
2021/09/16 08:11:41;;;;;;;11.52;5.32;;;;;;;-144.43;100.00;64487.81;5052630;28;20029;-55
2021/09/16 08:14:07;;;;;;;12.80;6.03;;;;;;;-144.43;100.00;64487.81;5043093;28;20480;-53
2021/09/16 08:16:34;;;;;;;10.50;5.38;;;;;;;-144.43;100.00;64487.81;5047435;28;20025;-53
2021/09/16 08:19:11;;;;;;;9.52;4.75;;;;;;;-144.43;100.00;64487.81;5052887;28;20450;-56
2021/09/16 08:21:40;;;;;;;9.82;4.60;;;;;;;17.13;100.00;94725.41;5052778;28;20029;-52
2021/09/16 08:24:11;;;;;;;8.13;4.05;;;;;;;17.20;100.00;94736.59;5052707;28;20028;-55
2021/09/16 08:26:37;;;;;;;7.20;3.78;;;;;;;17.18;100.00;94755.06;5034701;28;20434;-57
2021/09/16 08:29:02;;;;;;;9.20;4.10;;;;;;;17.40;100.00;94749.53;5052601;28;20031;-53
2021/09/16 08:31:28;;;;;;;7.28;4.38;;;;;;;17.60;100.00;94757.06;5034633;28;20036;-58
2021/09/16 08:33:53;;;;;;;13.10;4.60;;;;;;;17.89;100.00;94753.75;5052249;28;20028;-56
2021/09/16 08:36:25;;;;;;;8.45;3.67;;;;;;;17.89;100.00;94761.06;5052461;28;20029;-56
2021/09/16 08:38:53;;;;;;;7.88;3.92;;;;;;;17.87;100.00;94761.41;5034793;28;20107;-55
2021/09/16 08:41:19;;;;;;;7.45;3.65;;;;;;;17.79;100.00;94762.19;5052332;28;20379;-56
2021/09/16 08:43:45;;;;;;;6.53;3.10;;;;;;;17.75;100.00;94765.84;5034178;28;20040;-58
2021/09/16 08:46:12;;;;;;;7.30;3.20;;;;;;;18.16;100.00;94762.66;5051338;28;20028;-58
2021/09/16 08:48:37;;;;;;;4.90;3.30;;;;;;;18.67;100.00;94755.56;5052157;28;20020;-58
2021/09/16 08:51:03;;;;;;;6.47;2.83;;;;;;;18.79;100.00;94753.81;5052178;28;20032;-59
2021/09/16 08:53:30;;;;;;;5.88;2.92;;;;;;;18.78;100.00;94751.41;5051689;28;20024;-60
2021/09/16 08:55:59;;;;;;;7.97;2.22;;;;;;;18.84;100.00;94752.81;5052275;28;20052;-59
2021/09/16 08:58:29;;;;;;;5.40;2.50;;;;;;;18.97;100.00;94749.09;5052209;28;20110;-61
2021/09/16 09:00:54;;;;;;;3.83;2.65;;;;;;;19.06;100.00;94746.34;5034449;28;20107;-60
2021/09/16 09:03:20;;;;;;;9.68;2.45;;;;;;;19.20;100.00;94741.47;5051372;28;20566;-60
2021/09/16 09:05:46;;;;;;;4.10;2.30;;;;;;;19.22;100.00;94744.69;5052271;28;20378;-60
2021/09/16 09:08:12;;;;;;;5.55;2.50;;;;;;;19.27;100.00;94741.75;5051838;28;20024;-60
2021/09/16 09:10:45;;;;;;;4.43;2.17;;;;;;;19.85;100.00;94729.25;5051893;28;20052;-60
2021/09/16 09:13:42;;;;;;;3.92;2.03;;;;;;;20.03;100.00;94721.78;5040341;28;20131;-60
2021/09/16 09:16:11;;;;;;;11.18;2.45;;;;;;;-144.43;100.00;64487.81;5040691;28;20087;-61
2021/09/16 09:18:50;;;;;;;4.32;2.03;;;;;;;-144.43;100.00;64487.81;5048710;28;20032;-61
2021/09/16 09:21:17;;;;;;;4.90;1.88;;;;;;;-144.43;100.00;64487.81;5052210;28;20996;-61
2021/09/16 09:23:54;;;;;;;4.40;2.30;;;;;;;-144.43;100.00;64487.81;5020236;28;20476;-61
2021/09/16 09:26:31;;;;;;;6.95;2.00;;;;;;;-144.43;100.00;64487.81;5051607;28;20369;-60
2021/09/16 09:29:08;;;;;;;3.30;1.88;;;;;;;-144.43;100.00;64487.81;5051631;28;20383;-61
2021/09/16 09:31:37;;;;;;;3.28;2.05;;;;;;;-144.43;100.00;64487.81;5047059;28;20028;-61
2021/09/16 09:34:30;;;;;;;3.28;1.92;;;;;;;-144.43;100.00;64487.81;5051455;28;20024;-60
2021/09/16 09:37:14;;;;;;;3.72;1.83;;;;;;;-144.43;100.00;64487.81;5051323;28;20070;-61
2021/09/16 09:39:42;;;;;;;3.97;2.00;;;;;;;-144.43;100.00;64487.81;5033596;28;20029;-60
2021/09/16 09:42:23;;;;;;;2.30;1.70;;;;;;;-144.43;100.00;64487.81;5050817;28;20025;-60
2021/09/16 09:45:05;;;;;;;2.63;2.10;;;;;;;-144.43;100.00;64487.81;5051191;28;20028;-61
2021/09/16 09:47:38;;;;;;;3.70;1.60;;;;;;;-144.43;100.00;64487.81;5051209;28;20060;-61
2021/09/16 09:50:15;;;;;;;2.22;1.50;;;;;;;-144.43;100.00;64487.81;5051365;28;20078;-61
2021/09/16 09:52:40;;;;;;;3.28;1.50;;;;;;;-144.43;100.00;64487.81;5050894;28;20028;-60
2021/09/16 09:55:12;;;;;;;2.85;1.63;;;;;;;-144.43;100.00;64487.81;5024139;28;20487;-60
2021/09/16 09:57:38;;;;;;;3.85;1.95;;;;;;;-144.43;100.00;64487.81;5053494;28;20443;-60
2021/09/16 10:00:12;;;;;;;5.65;1.90;;;;;;;-144.43;100.00;64487.81;5055486;28;20036;-61
2021/09/16 10:02:54;;;;;;;4.60;1.92;;;;;;;-144.43;100.00;64487.81;5055101;28;20384;-59
2021/09/16 10:05:24;;;;;;;2.53;1.77;;;;;;;-144.43;100.00;64487.81;5042304;28;20056;-60
2021/09/16 10:07:51;;;;;;;3.38;1.70;;;;;;;-144.43;100.00;64487.81;5037413;28;20067;-59
2021/09/16 10:10:18;;;;;;;3.67;1.77;;;;;;;-144.43;100.00;64487.81;5055213;28;20118;-58
2021/09/16 10:12:46;;;;;;;3.22;2.00;;;;;;;-144.43;100.00;64487.81;5054842;28;20388;-60
2021/09/16 10:15:14;;;;;;;2.33;1.73;;;;;;;-144.43;100.00;64487.81;5039822;28;20035;-58
2021/09/16 10:17:41;;;;;;;4.13;1.80;;;;;;;-144.43;100.00;64487.81;5054947;28;20100;-60
2021/09/16 10:20:08;;;;;;;4.18;2.00;;;;;;;-144.43;100.00;64487.81;5055083;28;20521;-59
2021/09/16 10:22:35;;;;;;;4.00;1.75;;;;;;;-144.43;100.00;64487.81;5017081;28;20060;-60
2021/09/16 10:25:01;;;;;;;2.70;1.75;;;;;;;-144.43;100.00;64487.81;5031340;28;20037;-60
2021/09/16 10:27:39;;;;;;;3.75;1.60;;;;;;;-144.43;100.00;64487.81;5035795;28;20391;-61
2021/09/16 10:30:23;;;;;;;3.45;1.70;;;;;;;-144.43;100.00;64487.81;5053335;28;20372;-60
2021/09/16 10:33:05;;;;;;;2.67;1.48;;;;;;;-144.43;100.00;64487.81;5054328;28;20031;-60
2021/09/16 10:35:33;;;;;;;2.47;1.52;;;;;;;-144.43;100.00;64487.81;5054780;28;20055;-58
2021/09/16 10:38:18;;;;;;;3.50;1.75;;;;;;;-144.43;100.00;64487.81;5054679;28;20062;-59
2021/09/16 10:40:43;;;;;;;2.70;1.65;;;;;;;-144.43;100.00;64487.81;5054676;28;20028;-60
2021/09/16 10:43:09;;;;;;;2.90;1.45;;;;;;;-144.43;100.00;64487.81;5036283;28;20036;-60
2021/09/16 10:45:39;;;;;;;1.67;1.38;;;;;;;-144.43;100.00;64487.81;5054566;28;20368;-60
2021/09/16 10:48:13;;;;;;;1.92;1.23;;;;;;;-144.43;100.00;64487.81;5036547;28;20087;-59
2021/09/16 10:50:49;;;;;;;1.67;1.30;;;;;;;-144.43;100.00;64487.81;5054422;28;20480;-61
2021/09/16 10:53:35;;;;;;;2.30;1.27;;;;;;;-144.43;100.00;64487.81;5054057;28;20033;-60
2021/09/16 10:56:02;;;;;;;1.92;1.35;;;;;;;-144.43;100.00;64487.81;5051687;28;20033;-61
2021/09/16 10:58:28;;;;;;;5.28;1.52;;;;;;;-144.43;100.00;64487.81;5052725;28;20025;-60
2021/09/16 11:00:56;;;;;;;2.83;1.42;;;;;;;-144.43;100.00;64487.81;5051474;28;20049;-60
2021/09/16 11:03:21;;;;;;;1.30;1.10;;;;;;;-144.43;100.00;64487.81;5050632;28;20059;-58
2021/09/16 11:05:53;;;;;;;3.35;1.55;;;;;;;-144.43;100.00;64487.81;5033363;28;20111;-59
2021/09/16 11:08:21;;;;;;;1.97;1.37;;;;;;;-144.43;100.00;64487.81;5034367;28;20087;-59
2021/09/16 11:10:48;;;;;;;2.53;1.40;;;;;;;-144.43;100.00;64487.81;5052185;28;20029;-59
2021/09/16 11:13:38;;;;;;;4.40;1.33;;;;;;;-144.43;100.00;64487.81;5051804;28;20045;-60